Time;durP1;ratioP1;P1;durP2;ratioP2;P2;SDS_P1;SDS_P2;PMS_P1;PMS_P2;Temp;Humidity;BMP_temperature;BMP_pressure;BME280_temperature;BME280_humidity;BME280_pressure;Samples;Min_cycle;Max_cycle;Signal;HPM_P1;HPM_P2
2022/10/26 00:01:50;;;;;;;29.70;18.30;;;;;;;9.13;100.00;99012.02;214825;1309;24341;-74
2022/10/26 00:06:52;;;;;;;34.50;18.60;;;;;;;9.11;100.00;99008.88;214530;1298;22468;-73
2022/10/26 00:11:54;;;;;;;30.50;17.80;;;;;;;9.10;100.00;99013.20;214640;1309;24453;-74
2022/10/26 00:16:55;;;;;;;31.50;18.80;;;;;;;9.15;100.00;99009.83;214706;1309;25558;-73
2022/10/26 00:21:57;;;;;;;30.40;16.80;;;;;;;9.20;100.00;99013.45;214537;1309;24341;-73
2022/10/26 00:26:59;;;;;;;30.30;17.30;;;;;;;9.23;100.00;99005.85;214738;1309;24299;-73
2022/10/26 00:32:01;;;;;;;24.10;15.00;;;;;;;9.24;100.00;99006.91;214708;1309;22486;-73
2022/10/26 00:37:03;;;;;;;25.40;15.90;;;;;;;9.23;100.00;99014.35;214489;1297;22479;-73
2022/10/26 00:42:04;;;;;;;24.80;14.80;;;;;;;9.22;100.00;99012.38;214674;1308;24470;-74
2022/10/26 00:47:11;;;;;;;27.00;16.50;;;;;;;9.19;100.00;99015.05;214700;1309;22489;-73
2022/10/26 00:52:15;;;;;;;27.90;15.20;;;;;;;9.15;100.00;99015.02;214869;1309;22513;-73
2022/10/26 00:57:17;;;;;;;30.00;17.70;;;;;;;9.11;100.00;99014.55;214873;1309;24337;-72
2022/10/26 01:02:20;;;;;;;27.20;16.40;;;;;;;9.05;100.00;99012.69;214657;1309;22601;-74
2022/10/26 01:07:23;;;;;;;30.90;17.50;;;;;;;8.98;100.00;99014.96;214704;1309;24337;-74
2022/10/26 01:12:25;;;;;;;28.90;17.60;;;;;;;8.91;100.00;99015.30;214988;1307;24417;-73
2022/10/26 01:17:51;;;;;;;32.70;18.90;;;;;;;8.84;100.00;99006.86;214715;1309;22595;-73
2022/10/26 01:23:12;;;;;;;31.50;19.00;;;;;;;8.76;100.00;99008.82;214646;1309;24319;-73
2022/10/26 01:28:35;;;;;;;33.80;17.70;;;;;;;8.70;100.00;99013.73;214725;1308;27416;-73
2022/10/26 01:34:03;;;;;;;34.00;18.20;;;;;;;8.64;100.00;99004.14;214721;1309;22571;-73
2022/10/26 01:39:32;;;;;;;34.80;16.40;;;;;;;8.57;100.00;99007.84;214838;1309;22472;-73
2022/10/26 01:44:41;;;;;;;28.60;16.10;;;;;;;8.53;100.00;99008.80;214606;1309;24311;-73
2022/10/26 01:49:49;;;;;;;23.70;15.10;;;;;;;8.49;100.00;99010.92;214717;1304;22478;-73
2022/10/26 01:54:58;;;;;;;27.30;15.90;;;;;;;8.46;100.00;99009.50;214697;1309;22738;-73
2022/10/26 02:00:11;;;;;;;23.10;13.80;;;;;;;8.43;100.00;99010.64;214528;1309;22640;-73
2022/10/26 02:05:29;;;;;;;25.30;14.20;;;;;;;8.44;100.00;99010.01;214591;1309;22476;-73
2022/10/26 02:10:49;;;;;;;28.70;15.10;;;;;;;8.43;100.00;99006.27;214656;1309;138738;-74
2022/10/26 02:15:54;;;;;;;31.50;16.90;;;;;;;8.42;100.00;99003.49;214716;1309;22456;-74
2022/10/26 02:21:02;;;;;;;26.50;15.70;;;;;;;8.40;100.00;99004.92;214358;1309;22657;-74
2022/10/26 02:26:09;;;;;;;28.80;16.20;;;;;;;8.40;100.00;99004.55;214711;1309;22493;-74
2022/10/26 02:31:13;;;;;;;34.40;17.50;;;;;;;8.42;100.00;99010.53;214725;1309;22601;-73
2022/10/26 02:36:25;;;;;;;29.70;17.50;;;;;;;8.47;100.00;99007.19;214693;1309;24381;-73
2022/10/26 02:41:28;;;;;;;31.20;18.90;;;;;;;8.51;100.00;99006.98;214669;1309;22524;-73
2022/10/26 02:46:30;;;;;;;30.20;16.60;;;;;;;8.55;100.00;99005.74;214758;1308;22494;-73
2022/10/26 02:51:48;;;;;;;33.00;18.30;;;;;;;8.54;100.00;99005.33;214798;1309;22609;-73
2022/10/26 02:56:59;;;;;;;32.40;18.80;;;;;;;8.50;100.00;99007.08;214816;1301;22517;-72
2022/10/26 03:02:02;;;;;;;32.10;19.20;;;;;;;8.47;100.00;99009.70;214636;1309;22469;-73
2022/10/26 03:07:04;;;;;;;29.70;18.50;;;;;;;8.44;100.00;99009.00;214537;1309;25446;-73
2022/10/26 03:12:06;;;;;;;36.50;20.60;;;;;;;8.40;100.00;99015.66;214825;1309;22490;-73
2022/10/26 03:17:08;;;;;;;42.10;22.10;;;;;;;8.35;100.00;99015.88;214664;1306;22500;-73
2022/10/26 03:22:10;;;;;;;36.80;19.60;;;;;;;8.31;100.00;99016.51;214852;1309;22505;-73
2022/10/26 03:27:12;;;;;;;38.90;20.80;;;;;;;8.28;100.00;99019.23;214762;1309;22470;-74
2022/10/26 03:32:14;;;;;;;33.50;19.90;;;;;;;8.22;100.00;99017.47;214655;1309;23744;-73
2022/10/26 03:37:16;;;;;;;38.20;20.30;;;;;;;8.17;100.00;99019.72;214681;1309;24081;-73
2022/10/26 03:42:17;;;;;;;34.90;19.70;;;;;;;8.12;100.00;99019.45;214803;1308;23105;-73
2022/10/26 03:47:19;;;;;;;33.60;18.70;;;;;;;8.05;100.00;99021.77;214784;1309;25377;-73
2022/10/26 03:52:23;;;;;;;34.50;20.20;;;;;;;7.99;100.00;99020.18;214765;1304;22721;-73
2022/10/26 03:57:24;;;;;;;28.30;18.40;;;;;;;7.95;100.00;99026.52;214678;1295;22474;-73
2022/10/26 04:02:26;;;;;;;32.90;17.80;;;;;;;7.89;100.00;99029.93;214795;1309;25334;-74
2022/10/26 04:07:28;;;;;;;32.10;18.10;;;;;;;7.81;100.00;99033.80;214818;1308;24443;-74
2022/10/26 04:12:30;;;;;;;33.40;19.20;;;;;;;7.73;100.00;99039.54;214568;1308;22592;-73
2022/10/26 04:17:32;;;;;;;31.00;19.00;;;;;;;7.68;100.00;99038.78;214560;1309;23913;-74
2022/10/26 04:22:34;;;;;;;27.60;17.30;;;;;;;7.63;100.00;99040.80;214642;1295;22500;-74
2022/10/26 04:27:35;;;;;;;33.20;17.80;;;;;;;7.57;100.00;99044.98;214466;1309;22652;-74
2022/10/26 04:32:37;;;;;;;32.20;18.90;;;;;;;7.50;100.00;99046.02;214702;1295;22478;-73
2022/10/26 04:37:39;;;;;;;30.80;19.10;;;;;;;7.44;100.00;99044.35;214724;1309;25665;-74
2022/10/26 04:42:46;;;;;;;32.90;20.00;;;;;;;7.40;100.00;99041.98;214853;1309;22538;-73
2022/10/26 04:48:17;;;;;;;31.80;19.50;;;;;;;7.36;100.00;99045.08;214552;1304;22482;-72
2022/10/26 04:53:19;;;;;;;29.60;18.60;;;;;;;7.33;100.00;99038.50;214471;1309;22469;-74
2022/10/26 04:58:21;;;;;;;32.90;19.80;;;;;;;7.32;100.00;99036.36;214627;1301;22474;-72
2022/10/26 05:03:23;;;;;;;30.00;18.70;;;;;;;7.32;100.00;99035.52;214744;1307;22471;-74
2022/10/26 05:08:27;;;;;;;32.90;20.70;;;;;;;7.30;100.00;99037.21;214750;1307;22467;-73
2022/10/26 05:13:29;;;;;;;31.40;19.10;;;;;;;7.28;100.00;99031.88;214767;1294;25415;-73
2022/10/26 05:18:31;;;;;;;27.80;18.10;;;;;;;7.29;100.00;99035.66;214504;1309;22488;-74
2022/10/26 05:23:33;;;;;;;29.50;17.60;;;;;;;7.32;100.00;99036.58;214717;1304;22497;-73
2022/10/26 05:28:35;;;;;;;31.50;19.90;;;;;;;7.34;100.00;99038.84;214769;1309;26480;-73
2022/10/26 05:33:37;;;;;;;24.70;16.50;;;;;;;7.35;100.00;99042.35;214706;1309;25253;-74
2022/10/26 05:38:38;;;;;;;31.00;18.70;;;;;;;7.40;100.00;99045.15;214716;1309;22482;-73
2022/10/26 05:43:40;;;;;;;37.30;21.00;;;;;;;7.45;100.00;99052.94;214988;1277;22598;-72
2022/10/26 05:48:42;;;;;;;34.10;20.90;;;;;;;7.45;100.00;99056.36;215056;1285;23700;-73
2022/10/26 05:53:44;;;;;;;33.50;20.80;;;;;;;7.48;100.00;99054.02;215095;1290;22524;-74
2022/10/26 05:58:47;;;;;;;38.80;23.90;;;;;;;7.52;100.00;99053.30;215180;1278;22477;-75
2022/10/26 06:03:55;;;;;;;35.00;21.30;;;;;;;7.58;100.00;99057.47;215498;1277;24816;-73
2022/10/26 06:08:57;;;;;;;36.60;23.30;;;;;;;7.64;100.00;99064.32;215676;1277;25039;-73
2022/10/26 06:14:00;;;;;;;45.60;24.20;;;;;;;7.72;100.00;99069.67;215669;1277;24281;-74
2022/10/26 06:19:15;;;;;;;38.80;23.50;;;;;;;7.80;100.00;99074.13;215375;1277;22504;-76
2022/10/26 06:24:55;;;;;;;30.50;20.80;;;;;;;7.91;100.00;99076.73;215483;1277;23253;-73
2022/10/26 06:30:06;;;;;;;36.50;22.60;;;;;;;8.09;100.00;99085.67;215022;1278;23960;-72
2022/10/26 06:35:10;;;;;;;33.80;21.80;;;;;;;8.29;100.00;99088.16;215490;1282;22516;-73
2022/10/26 06:40:14;;;;;;;34.50;22.80;;;;;;;8.44;100.00;99094.05;215269;1280;22476;-72
2022/10/26 06:45:17;;;;;;;38.60;25.50;;;;;;;8.69;100.00;99098.61;215614;1278;22465;-73
2022/10/26 06:50:32;;;;;;;42.00;28.20;;;;;;;8.88;100.00;99102.39;215122;1285;24391;-73
2022/10/26 06:55:40;;;;;;;42.10;29.20;;;;;;;9.15;100.00;99104.22;215385;1277;24452;-73
2022/10/26 07:00:45;;;;;;;42.20;28.40;;;;;;;9.42;100.00;99103.84;215439;1285;24340;-73
2022/10/26 07:05:47;;;;;;;42.20;28.40;;;;;;;9.55;100.00;99104.75;215337;1285;22600;-73
2022/10/26 07:10:49;;;;;;;45.10;27.10;;;;;;;9.67;100.00;99106.15;215073;1285;22508;-73
2022/10/26 07:15:51;;;;;;;22.50;17.50;;;;;;;9.80;100.00;99111.23;215221;1285;24354;-73
2022/10/26 07:20:53;;;;;;;26.20;17.40;;;;;;;9.88;100.00;99110.66;215401;1277;23904;-73
2022/10/26 07:25:58;;;;;;;38.10;22.50;;;;;;;9.93;100.00;99110.73;215204;1284;22501;-73
2022/10/26 07:31:00;;;;;;;34.10;22.90;;;;;;;10.03;100.00;99113.80;215360;1277;22588;-73
2022/10/26 07:36:02;;;;;;;27.50;17.00;;;;;;;10.14;100.00;99112.98;215453;1277;22602;-73
2022/10/26 07:41:05;;;;;;;28.70;18.20;;;;;;;10.23;100.00;99119.30;215370;1283;22524;-73
2022/10/26 07:46:07;;;;;;;24.00;16.90;;;;;;;10.35;100.00;99122.89;215367;1287;24020;-72
2022/10/26 07:51:08;;;;;;;22.50;14.70;;;;;;;10.53;100.00;99127.77;215219;1277;22479;-72
2022/10/26 07:56:10;;;;;;;27.40;16.60;;;;;;;10.70;100.00;99135.23;215331;1284;25664;-73
2022/10/26 08:01:14;;;;;;;23.40;16.00;;;;;;;10.85;100.00;99131.41;215298;1284;25308;-73
2022/10/26 08:06:16;;;;;;;23.90;14.90;;;;;;;11.02;100.00;99134.81;215337;1295;22521;-73
2022/10/26 08:11:18;;;;;;;18.50;11.90;;;;;;;11.16;100.00;99132.69;215319;1288;24391;-73
2022/10/26 08:16:21;;;;;;;21.90;13.00;;;;;;;11.34;100.00;99131.77;215219;1284;22484;-73
2022/10/26 08:21:23;;;;;;;19.30;12.00;;;;;;;11.54;100.00;99124.05;215337;1277;22470;-72
2022/10/26 08:26:41;;;;;;;21.00;12.50;;;;;;;11.71;100.00;99126.14;215317;1284;22574;-72
2022/10/26 08:31:43;;;;;;;16.70;10.50;;;;;;;11.95;100.00;99121.33;215264;1291;22473;-72
2022/10/26 08:36:45;;;;;;;14.00;8.80;;;;;;;12.18;100.00;99118.76;215273;1282;24542;-72
2022/10/26 08:41:52;;;;;;;15.70;9.10;;;;;;;12.42;100.00;99124.38;215269;1277;22475;-72
2022/10/26 08:47:10;;;;;;;16.00;7.90;;;;;;;12.66;100.00;99120.61;215286;1287;22507;-74
2022/10/26 08:52:18;;;;;;;12.10;7.60;;;;;;;12.92;100.00;99125.79;215361;1284;22479;-75
2022/10/26 08:57:25;;;;;;;12.50;7.00;;;;;;;13.17;100.00;99127.34;215235;1285;22551;-75
2022/10/26 09:02:27;;;;;;;13.20;8.60;;;;;;;13.37;100.00;99124.95;215376;1281;25714;-72
2022/10/26 09:07:45;;;;;;;12.80;7.70;;;;;;;13.56;100.00;99132.63;215393;1281;22626;-74
2022/10/26 09:12:47;;;;;;;8.10;5.10;;;;;;;13.79;100.00;99128.60;215440;1285;25253;-74
2022/10/26 09:17:52;;;;;;;10.70;6.30;;;;;;;13.98;100.00;99133.17;215499;1282;22529;-74
2022/10/26 09:23:23;;;;;;;9.30;5.60;;;;;;;14.13;100.00;99136.80;215381;1278;22512;-74
2022/10/26 09:28:30;;;;;;;9.30;6.20;;;;;;;14.33;100.00;99139.48;215441;1277;22472;-74
2022/10/26 09:33:38;;;;;;;10.10;5.30;;;;;;;14.49;100.00;99146.23;215861;1284;22497;-73
2022/10/26 09:39:03;;;;;;;8.20;5.20;;;;;;;14.68;100.00;99143.92;215360;1284;24253;-74
2022/10/26 09:44:26;;;;;;;8.00;4.40;;;;;;;14.87;100.00;99150.06;215196;1284;22532;-73
2022/10/26 09:49:47;;;;;;;10.80;4.50;;;;;;;15.04;99.85;99155.85;215193;1285;22509;-72
2022/10/26 09:54:49;;;;;;;8.00;4.00;;;;;;;15.20;98.65;99150.85;215164;1281;22536;-72
2022/10/26 09:59:54;;;;;;;9.00;4.70;;;;;;;15.26;97.54;99150.54;215169;1277;24109;-72
2022/10/26 10:04:56;;;;;;;7.90;4.40;;;;;;;15.44;98.00;99149.73;215366;1288;22463;-73
2022/10/26 10:10:15;;;;;;;9.50;4.40;;;;;;;15.61;97.41;99147.22;215195;1287;22673;-73
2022/10/26 10:15:22;;;;;;;4.20;2.80;;;;;;;15.73;95.86;99147.93;215271;1285;24416;-73
2022/10/26 10:20:32;;;;;;;5.00;3.30;;;;;;;15.83;94.78;99152.30;215246;1285;22486;-73
2022/10/26 10:25:38;;;;;;;6.70;3.20;;;;;;;15.94;93.85;99157.44;215385;1278;24305;-72
2022/10/26 10:30:52;;;;;;;6.70;3.20;;;;;;;16.09;93.26;99152.27;215433;1287;22468;-72
2022/10/26 10:35:54;;;;;;;9.10;5.00;;;;;;;16.17;91.98;99155.94;215810;1282;22612;-73
2022/10/26 10:40:58;;;;;;;5.30;2.90;;;;;;;16.27;91.58;99154.06;215565;1280;22586;-73
2022/10/26 10:46:00;;;;;;;5.80;2.80;;;;;;;16.38;91.21;99152.25;215373;1291;22480;-74
2022/10/26 10:51:11;;;;;;;4.50;2.50;;;;;;;16.50;90.48;99152.48;215345;1287;22997;-74
2022/10/26 10:56:27;;;;;;;5.30;3.00;;;;;;;16.60;89.57;99156.93;215282;1281;22535;-72
2022/10/26 11:01:47;;;;;;;2.90;2.20;;;;;;;16.72;89.20;99156.55;215208;1285;25286;-73
2022/10/26 11:06:52;;;;;;;5.60;4.30;;;;;;;16.86;88.23;99152.48;215509;1284;25386;-72
2022/10/26 11:12:02;;;;;;;4.50;2.00;;;;;;;16.96;87.92;99154.09;215269;1284;25413;-72
2022/10/26 11:17:30;;;;;;;2.80;2.10;;;;;;;17.03;86.83;99151.09;215324;1280;25282;-72
2022/10/26 11:22:41;;;;;;;2.80;1.30;;;;;;;17.07;84.52;99151.18;215464;1284;22482;-72
2022/10/26 11:27:53;;;;;;;3.20;1.50;;;;;;;17.14;84.15;99151.83;216495;1277;22526;-72
2022/10/26 11:33:09;;;;;;;5.00;2.30;;;;;;;17.22;83.70;99151.71;215330;1283;22507;-73
2022/10/26 11:38:41;;;;;;;6.90;1.40;;;;;;;17.32;83.63;99147.86;215225;1284;24254;-72
2022/10/26 11:44:10;;;;;;;3.40;1.80;;;;;;;17.41;83.27;99146.70;215239;1277;22464;-73
2022/10/26 11:49:37;;;;;;;1.70;1.10;;;;;;;17.51;82.90;99149.55;215358;1282;22470;-73
2022/10/26 11:54:50;;;;;;;5.40;1.80;;;;;;;17.54;81.88;99148.66;215172;1284;24964;-77
2022/10/26 12:00:00;;;;;;;2.40;1.20;;;;;;;17.60;81.62;99146.36;215391;1278;22500;-73
2022/10/26 12:05:15;;;;;;;3.30;1.20;;;;;;;17.68;81.18;99149.90;215571;1283;25337;-73
2022/10/26 12:10:27;;;;;;;3.30;1.60;;;;;;;17.71;80.69;99147.94;215235;1284;22513;-73
2022/10/26 12:15:34;;;;;;;2.00;1.10;;;;;;;17.75;80.39;99142.64;215224;1283;24710;-73
2022/10/26 12:21:02;;;;;;;6.10;1.70;;;;;;;17.79;79.44;99138.97;215054;1284;25441;-74
2022/10/26 12:26:23;;;;;;;2.70;1.30;;;;;;;17.85;79.77;99140.69;215311;1285;22486;-73
2022/10/26 12:31:37;;;;;;;3.10;1.50;;;;;;;17.85;78.91;99144.92;215357;1309;24241;-77
2022/10/26 12:36:49;;;;;;;4.20;1.40;;;;;;;17.87;78.60;99146.41;215464;1285;22505;-74
2022/10/26 12:42:09;;;;;;;2.80;1.30;;;;;;;17.89;78.13;99147.40;215309;1283;22488;-70
2022/10/26 12:47:27;;;;;;;3.00;1.40;;;;;;;17.90;78.21;99149.50;215261;1285;22598;-72
2022/10/26 12:52:49;;;;;;;2.40;1.10;;;;;;;17.99;78.48;99140.07;215288;1288;24372;-71
2022/10/26 12:58:13;;;;;;;2.00;1.40;;;;;;;18.14;78.01;99137.25;215201;1287;23023;-71
2022/10/26 13:03:33;;;;;;;2.00;1.10;;;;;;;18.24;77.05;99137.21;215286;1286;23001;-70
2022/10/26 13:08:56;;;;;;;1.90;0.90;;;;;;;18.20;75.43;99141.01;215178;1285;22494;-74
2022/10/26 13:14:07;;;;;;;1.90;0.70;;;;;;;18.19;75.73;99141.03;215259;1284;22530;-72
2022/10/26 13:19:23;;;;;;;6.00;3.50;;;;;;;18.16;75.61;99137.61;215278;1284;22514;-72
2022/10/26 13:24:29;;;;;;;3.10;1.10;;;;;;;18.03;74.83;99138.15;215287;1284;25273;-72
2022/10/26 13:29:32;;;;;;;4.60;1.10;;;;;;;17.93;74.52;99140.21;215339;1284;25255;-71
2022/10/26 13:34:39;;;;;;;1.30;1.10;;;;;;;17.83;75.23;99135.86;215694;1284;22501;-71
2022/10/26 13:39:44;;;;;;;1.60;0.80;;;;;;;17.78;74.94;99140.89;215340;1284;24327;-71
2022/10/26 13:45:05;;;;;;;2.60;1.10;;;;;;;17.71;75.05;99145.17;215372;1282;22477;-72
2022/10/26 13:50:14;;;;;;;3.40;1.00;;;;;;;17.64;75.24;99151.23;215318;1284;22476;-72
2022/10/26 13:55:32;;;;;;;2.20;1.20;;;;;;;17.54;74.62;99151.71;215194;1283;24233;-73
2022/10/26 14:00:34;;;;;;;4.20;1.40;;;;;;;17.45;74.96;99148.09;215099;1285;22685;-74
2022/10/26 14:05:41;;;;;;;3.10;1.40;;;;;;;17.37;75.40;99150.98;214642;1299;24456;-74
2022/10/26 14:10:55;;;;;;;4.40;1.40;;;;;;;17.27;75.48;99152.92;214554;1298;135508;-74
2022/10/26 14:15:57;;;;;;;2.70;1.30;;;;;;;17.16;75.57;99152.55;214655;1309;23063;-74
2022/10/26 14:21:12;;;;;;;2.60;1.20;;;;;;;17.05;75.61;99153.15;214741;1307;22509;-74
2022/10/26 14:26:23;;;;;;;6.50;1.50;;;;;;;16.95;75.86;99151.26;214558;1309;23941;-74
2022/10/26 14:31:31;;;;;;;1.80;1.30;;;;;;;16.85;76.16;99150.58;214751;1309;22762;-73
2022/10/26 14:36:42;;;;;;;4.00;1.40;;;;;;;16.74;76.29;99150.27;214729;1309;23805;-73
2022/10/26 14:41:44;;;;;;;3.50;1.60;;;;;;;16.63;76.45;99154.45;214604;1308;22600;-74
2022/10/26 14:46:48;;;;;;;1.70;1.10;;;;;;;16.53;76.71;99154.83;214767;1309;23143;-73
2022/10/26 14:51:58;;;;;;;3.90;1.70;;;;;;;16.40;76.77;99159.30;214903;1309;25445;-72
2022/10/26 14:57:07;;;;;;;2.70;1.30;;;;;;;16.26;77.03;99162.36;214677;1309;22469;-74
2022/10/26 15:02:09;;;;;;;1.50;1.30;;;;;;;16.11;77.18;99161.86;214798;1300;22515;-74
2022/10/26 15:07:11;;;;;;;6.90;1.30;;;;;;;15.98;77.54;99167.56;214877;1309;25367;-73
2022/10/26 15:12:29;;;;;;;2.70;1.50;;;;;;;15.79;78.02;99173.48;214789;1301;22480;-74
2022/10/26 15:17:38;;;;;;;3.60;1.50;;;;;;;15.57;78.56;99171.53;214854;1295;22544;-72
2022/10/26 15:22:42;;;;;;;2.80;1.40;;;;;;;15.34;78.98;99174.55;214700;1309;22480;-73
2022/10/26 15:27:44;;;;;;;2.80;1.80;;;;;;;15.13;79.45;99178.43;214764;1308;22626;-73
2022/10/26 15:32:46;;;;;;;4.50;1.80;;;;;;;14.92;79.78;99177.19;214754;1309;24330;-72
2022/10/26 15:37:50;;;;;;;4.40;2.00;;;;;;;14.70;80.10;99180.77;214621;1310;22483;-74
2022/10/26 15:42:54;;;;;;;4.80;1.80;;;;;;;14.47;80.46;99174.58;214842;1309;22599;-74
2022/10/26 15:47:57;;;;;;;2.50;1.80;;;;;;;14.26;80.90;99184.21;214537;1309;24253;-73
2022/10/26 15:53:01;;;;;;;3.00;2.10;;;;;;;14.05;81.23;99187.17;214816;1309;22610;-73
2022/10/26 15:58:03;;;;;;;4.60;2.30;;;;;;;13.85;81.72;99194.30;214850;1308;23790;-73
2022/10/26 16:03:05;;;;;;;5.70;3.80;;;;;;;13.65;82.20;99196.25;214604;1309;22521;-74
2022/10/26 16:08:13;;;;;;;10.50;4.70;;;;;;;13.44;82.56;99199.00;214888;1302;23811;-72
2022/10/26 16:13:19;;;;;;;9.20;5.20;;;;;;;13.22;82.91;99206.08;214479;1302;22512;-73
2022/10/26 16:18:20;;;;;;;11.00;5.00;;;;;;;13.01;83.32;99208.10;214680;1309;25429;-73
2022/10/26 16:23:22;;;;;;;15.40;6.90;;;;;;;12.84;83.73;99205.34;214793;1309;23944;-72
2022/10/26 16:28:24;;;;;;;21.30;9.30;;;;;;;12.69;84.06;99205.34;214759;1309;22458;-73
2022/10/26 16:33:26;;;;;;;44.70;20.20;;;;;;;12.55;84.42;99206.52;214659;1309;22562;-74
2022/10/26 16:38:30;;;;;;;45.80;23.10;;;;;;;12.41;84.82;99208.75;214670;1309;22546;-73
2022/10/26 16:43:35;;;;;;;27.10;14.60;;;;;;;12.27;85.22;99212.52;214592;1308;22516;-73
2022/10/26 16:48:38;;;;;;;37.60;18.60;;;;;;;12.13;85.69;99214.38;214675;1309;25271;-73
2022/10/26 16:53:41;;;;;;;31.10;16.20;;;;;;;12.00;86.00;99220.77;214872;1309;24255;-74
2022/10/26 16:58:43;;;;;;;20.40;10.90;;;;;;;11.88;86.36;99229.89;214682;1309;22747;-74
2022/10/26 17:03:46;;;;;;;18.90;9.30;;;;;;;11.73;86.72;99227.14;214690;1309;22963;-73
2022/10/26 17:08:48;;;;;;;24.90;12.30;;;;;;;11.61;87.06;99236.61;214631;1309;25190;-73
2022/10/26 17:13:54;;;;;;;23.50;12.80;;;;;;;11.52;87.56;99242.11;214603;1309;23233;-73
2022/10/26 17:18:56;;;;;;;26.80;13.60;;;;;;;11.41;87.81;99250.10;214784;1309;22546;-72
2022/10/26 17:23:57;;;;;;;28.60;16.90;;;;;;;11.31;88.25;99251.52;214677;1309;22484;-74
2022/10/26 17:28:59;;;;;;;28.20;17.10;;;;;;;11.22;88.45;99252.77;214615;1309;25233;-73
2022/10/26 17:34:01;;;;;;;30.10;17.60;;;;;;;11.13;88.83;99255.69;214768;1309;25372;-73
2022/10/26 17:39:03;;;;;;;28.00;17.40;;;;;;;11.05;89.01;99263.00;214440;1298;22474;-73
2022/10/26 17:44:05;;;;;;;28.10;16.50;;;;;;;10.97;89.25;99264.49;214624;1309;25306;-74
2022/10/26 17:49:07;;;;;;;33.10;17.40;;;;;;;10.90;89.42;99275.36;214700;1309;22581;-71
2022/10/26 17:54:09;;;;;;;42.10;23.10;;;;;;;10.83;89.78;99285.65;214235;1309;22601;-72
2022/10/26 17:59:11;;;;;;;53.80;27.50;;;;;;;10.76;89.73;99289.16;214717;1309;22479;-74
2022/10/26 18:04:13;;;;;;;52.20;30.30;;;;;;;10.71;90.04;99289.73;214522;1309;23307;-73
2022/10/26 18:09:15;;;;;;;57.00;29.50;;;;;;;10.66;90.31;99295.39;214595;1309;24237;-72
2022/10/26 18:14:17;;;;;;;52.40;28.30;;;;;;;10.58;90.42;99301.64;214818;1308;22482;-72
2022/10/26 18:19:19;;;;;;;50.80;27.40;;;;;;;10.51;90.83;99300.98;214834;1309;22555;-73
2022/10/26 18:24:20;;;;;;;45.80;25.30;;;;;;;10.44;90.91;99305.67;214551;1309;24407;-73
2022/10/26 18:29:23;;;;;;;41.40;23.20;;;;;;;10.37;91.17;99310.62;214732;1309;22495;-73
2022/10/26 18:34:24;;;;;;;39.30;20.50;;;;;;;10.30;91.23;99318.38;214909;1309;24294;-74
2022/10/26 18:39:26;;;;;;;37.80;21.00;;;;;;;10.24;91.33;99318.29;214662;1309;24405;-72
2022/10/26 18:44:28;;;;;;;33.20;20.60;;;;;;;10.17;91.48;99327.95;214744;1301;22505;-72
2022/10/26 18:49:30;;;;;;;38.60;21.10;;;;;;;10.11;91.64;99332.19;214509;1309;25290;-74
2022/10/26 18:54:32;;;;;;;37.20;21.30;;;;;;;10.05;91.89;99332.10;214759;1309;22636;-73
2022/10/26 18:59:34;;;;;;;37.90;20.90;;;;;;;10.00;92.09;99338.05;214675;1309;22495;-74
2022/10/26 19:04:36;;;;;;;41.00;22.20;;;;;;;9.94;92.19;99340.53;214756;1309;23888;-73
2022/10/26 19:09:39;;;;;;;45.10;23.00;;;;;;;9.88;92.35;99345.83;214755;1309;23813;-73
2022/10/26 19:14:41;;;;;;;47.90;24.80;;;;;;;9.81;92.48;99344.33;214569;1309;24223;-74
2022/10/26 19:19:43;;;;;;;39.40;22.10;;;;;;;9.75;92.59;99350.39;214787;1309;23234;-73
2022/10/26 19:24:47;;;;;;;38.30;21.70;;;;;;;9.71;92.96;99355.27;214593;1309;22520;-73
2022/10/26 19:29:48;;;;;;;33.80;21.10;;;;;;;9.71;93.22;99360.40;214613;1309;24488;-76
2022/10/26 19:34:50;;;;;;;33.30;20.70;;;;;;;9.71;93.56;99366.01;214614;1301;22604;-74
2022/10/26 19:39:52;;;;;;;39.70;22.50;;;;;;;9.70;93.45;99369.05;214631;1309;24329;-75
2022/10/26 19:44:54;;;;;;;40.50;22.70;;;;;;;9.65;93.72;99369.75;214631;1309;25341;-74
2022/10/26 19:49:58;;;;;;;37.60;21.50;;;;;;;9.59;93.55;99371.91;214622;1308;22593;-74
2022/10/26 19:55:00;;;;;;;41.20;22.40;;;;;;;9.53;93.91;99378.36;214812;1309;22504;-75
2022/10/26 20:00:02;;;;;;;41.50;22.50;;;;;;;9.49;94.15;99386.33;214777;1309;22481;-74
2022/10/26 20:05:13;;;;;;;41.90;23.80;;;;;;;9.43;94.22;99392.91;214711;1309;25358;-72
2022/10/26 20:10:15;;;;;;;44.70;24.30;;;;;;;9.38;94.35;99396.85;214647;1309;22472;-73
2022/10/26 20:15:16;;;;;;;42.70;23.80;;;;;;;9.32;94.58;99402.19;214723;1309;25199;-74
2022/10/26 20:20:18;;;;;;;40.20;24.70;;;;;;;9.24;94.70;99405.42;214563;1309;22479;-73
2022/10/26 20:25:20;;;;;;;47.70;25.20;;;;;;;9.18;94.80;99403.66;214602;1309;22589;-74
2022/10/26 20:30:22;;;;;;;46.60;25.50;;;;;;;9.12;95.00;99409.84;214656;1309;24875;-72
2022/10/26 20:35:24;;;;;;;46.00;25.60;;;;;;;9.06;95.13;99410.25;214596;1309;22469;-73
2022/10/26 20:40:27;;;;;;;42.20;25.30;;;;;;;9.00;95.32;99414.13;214622;1309;24301;-74
2022/10/26 20:45:30;;;;;;;46.60;25.40;;;;;;;8.96;95.66;99413.95;214567;1309;22525;-73
2022/10/26 20:50:32;;;;;;;46.90;25.70;;;;;;;8.92;95.74;99410.68;214702;1309;25388;-73
2022/10/26 20:55:43;;;;;;;47.10;26.20;;;;;;;8.86;95.95;99412.63;214804;1309;22593;-73
2022/10/26 21:00:59;;;;;;;47.90;24.70;;;;;;;8.82;96.11;99416.25;214805;1309;22603;-73
2022/10/26 21:06:01;;;;;;;44.60;24.20;;;;;;;8.79;96.37;99420.30;214573;1309;25494;-73
2022/10/26 21:11:03;;;;;;;44.40;23.70;;;;;;;8.75;96.49;99423.15;214542;1309;25095;-74
2022/10/26 21:16:07;;;;;;;49.30;25.60;;;;;;;8.70;96.68;99431.95;214754;1309;22488;-73
2022/10/26 21:21:09;;;;;;;49.20;26.80;;;;;;;8.66;96.95;99434.71;214585;1309;22704;-73
2022/10/26 21:26:11;;;;;;;41.60;24.60;;;;;;;8.63;97.08;99433.41;214821;1309;22470;-73
2022/10/26 21:31:15;;;;;;;45.90;24.60;;;;;;;8.62;97.16;99429.98;214718;1309;23295;-73
2022/10/26 21:36:17;;;;;;;46.90;24.50;;;;;;;8.60;97.48;99429.60;214720;1309;22476;-73
2022/10/26 21:41:20;;;;;;;47.20;23.40;;;;;;;8.57;97.53;99430.17;214682;1309;22618;-73
2022/10/26 21:46:22;;;;;;;46.90;23.10;;;;;;;8.54;97.70;99437.59;214674;1309;22478;-74
2022/10/26 21:51:24;;;;;;;42.60;24.00;;;;;;;8.51;97.79;99434.94;214628;1305;22624;-72
2022/10/26 21:56:25;;;;;;;41.50;22.30;;;;;;;8.48;98.01;99434.14;214676;1308;22565;-73
2022/10/26 22:01:27;;;;;;;35.60;18.50;;;;;;;8.46;98.01;99432.20;214652;1309;23011;-73
2022/10/26 22:06:29;;;;;;;38.40;20.70;;;;;;;8.44;98.36;99436.82;214759;1309;24305;-74
2022/10/26 22:11:32;;;;;;;33.10;18.10;;;;;;;8.42;98.59;99435.39;214733;1309;23942;-74
2022/10/26 22:16:34;;;;;;;34.10;18.10;;;;;;;8.39;98.73;99435.34;214709;1309;24315;-73
2022/10/26 22:21:38;;;;;;;35.20;17.70;;;;;;;8.39;99.39;99438.44;214797;1309;25436;-73
2022/10/26 22:26:40;;;;;;;31.30;18.10;;;;;;;8.41;99.79;99441.95;214871;1309;22473;-73
2022/10/26 22:31:42;;;;;;;33.10;19.50;;;;;;;8.42;99.98;99446.60;214657;1309;25347;-73
2022/10/26 22:36:44;;;;;;;34.70;19.10;;;;;;;8.42;100.00;99449.71;214685;1295;22517;-73
2022/10/26 22:41:48;;;;;;;34.30;18.90;;;;;;;8.42;100.00;99448.68;214449;1309;25330;-72
2022/10/26 22:46:49;;;;;;;35.40;18.90;;;;;;;8.39;100.00;99446.75;214695;1309;24492;-73
2022/10/26 22:51:51;;;;;;;35.30;19.40;;;;;;;8.37;100.00;99454.97;214654;1309;22514;-73
2022/10/26 22:56:54;;;;;;;36.40;19.70;;;;;;;8.37;100.00;99456.30;214534;1309;22510;-73
2022/10/26 23:01:56;;;;;;;39.80;21.10;;;;;;;8.34;100.00;99451.42;214570;1309;25243;-73
2022/10/26 23:06:58;;;;;;;38.50;20.80;;;;;;;8.29;100.00;99453.69;214621;1309;22618;-73
2022/10/26 23:12:01;;;;;;;44.30;22.20;;;;;;;8.26;100.00;99459.42;214798;1309;22492;-72
2022/10/26 23:17:04;;;;;;;41.30;21.70;;;;;;;8.23;100.00;99455.92;214821;1309;25267;-75
2022/10/26 23:22:06;;;;;;;41.80;22.30;;;;;;;8.22;100.00;99451.77;214658;1309;22467;-73